sensor_id;sensor_type;location;lat;lon;timestamp;pressure;altitude;pressure_sealevel;temperature;humidity
16595;BME280;8410;52.532;13.336;2022-12-29T00:02:01;100170.16;;;14.21;81.31
16595;BME280;8410;52.532;13.336;2022-12-29T00:04:28;100170.28;;;14.12;80.77
16595;BME280;8410;52.532;13.336;2022-12-29T00:06:56;100169.41;;;14.10;78.27
16595;BME280;8410;52.532;13.336;2022-12-29T00:09:25;100168.00;;;14.59;76.21
16595;BME280;8410;52.532;13.336;2022-12-29T00:11:54;100166.44;;;13.65;77.71
16595;BME280;8410;52.532;13.336;2022-12-29T00:14:21;100155.44;;;13.41;74.35
16595;BME280;8410;52.532;13.336;2022-12-29T00:17:06;100156.41;;;13.28;76.43
16595;BME280;8410;52.532;13.336;2022-12-29T00:19:34;100162.81;;;12.67;74.84
16595;BME280;8410;52.532;13.336;2022-12-29T00:22:19;100166.53;;;11.77;79.18
16595;BME280;8410;52.532;13.336;2022-12-29T00:25:05;100167.41;;;11.62;78.18
16595;BME280;8410;52.532;13.336;2022-12-29T00:27:54;100164.81;;;11.85;79.05
16595;BME280;8410;52.532;13.336;2022-12-29T00:30:40;100159.72;;;11.55;79.98
16595;BME280;8410;52.532;13.336;2022-12-29T00:33:26;100146.81;;;11.22;80.11
16595;BME280;8410;52.532;13.336;2022-12-29T00:36:15;100145.06;;;11.61;80.68
16595;BME280;8410;52.532;13.336;2022-12-29T00:38:47;100165.72;;;11.52;80.32
16595;BME280;8410;52.532;13.336;2022-12-29T00:41:29;100153.69;;;11.23;81.86
16595;BME280;8410;52.532;13.336;2022-12-29T00:44:15;100150.25;;;11.34;81.50
16595;BME280;8410;52.532;13.336;2022-12-29T00:46:43;100147.66;;;11.11;80.94
16595;BME280;8410;52.532;13.336;2022-12-29T00:49:12;100142.50;;;11.61;79.85
16595;BME280;8410;52.532;13.336;2022-12-29T00:52:00;100144.25;;;11.50;81.39
16595;BME280;8410;52.532;13.336;2022-12-29T00:54:28;100146.81;;;11.53;81.46
16595;BME280;8410;52.532;13.336;2022-12-29T00:56:56;100138.22;;;11.05;81.73
16595;BME280;8410;52.532;13.336;2022-12-29T00:59:25;100138.13;;;10.53;83.25
16595;BME280;8410;52.532;13.336;2022-12-29T01:01:53;100136.50;;;11.10;82.74
16595;BME280;8410;52.532;13.336;2022-12-29T01:04:25;100148.50;;;10.84;82.16
16595;BME280;8410;52.532;13.336;2022-12-29T01:06:53;100135.66;;;11.22;82.38
16595;BME280;8410;52.532;13.336;2022-12-29T01:09:20;100136.53;;;11.25;82.91
16595;BME280;8410;52.532;13.336;2022-12-29T01:12:06;100140.81;;;11.23;83.14
16595;BME280;8410;52.532;13.336;2022-12-29T01:14:36;100129.63;;;11.09;82.84
16595;BME280;8410;52.532;13.336;2022-12-29T01:17:04;100137.38;;;11.11;83.97
16595;BME280;8410;52.532;13.336;2022-12-29T01:19:31;100131.38;;;11.25;82.45
16595;BME280;8410;52.532;13.336;2022-12-29T01:21:59;100127.06;;;11.12;82.91
16595;BME280;8410;52.532;13.336;2022-12-29T01:24:26;100134.75;;;10.88;84.37
16595;BME280;8410;52.532;13.336;2022-12-29T01:26:54;100141.66;;;11.16;83.26
16595;BME280;8410;52.532;13.336;2022-12-29T01:29:21;100139.06;;;11.30;81.62
16595;BME280;8410;52.532;13.336;2022-12-29T01:31:50;100126.22;;;11.25;80.78
16595;BME280;8410;52.532;13.336;2022-12-29T01:34:18;100129.66;;;11.34;81.76
16595;BME280;8410;52.532;13.336;2022-12-29T01:36:45;100127.03;;;11.09;83.30
16595;BME280;8410;52.532;13.336;2022-12-29T01:39:13;100129.63;;;11.40;81.45
16595;BME280;8410;52.532;13.336;2022-12-29T01:41:41;100129.59;;;10.85;85.49
16595;BME280;8410;52.532;13.336;2022-12-29T01:44:47;100139.09;;;11.24;83.72
16595;BME280;8410;52.532;13.336;2022-12-29T01:47:22;100128.75;;;11.12;82.06
16595;BME280;8410;52.532;13.336;2022-12-29T01:49:53;100135.63;;;10.84;83.41
16595;BME280;8410;52.532;13.336;2022-12-29T01:52:22;100139.91;;;10.88;84.63
16595;BME280;8410;52.532;13.336;2022-12-29T01:54:53;100127.84;;;10.60;85.66
16595;BME280;8410;52.532;13.336;2022-12-29T01:57:24;100118.47;;;10.96;85.04
16595;BME280;8410;52.532;13.336;2022-12-29T01:59:56;100124.25;;;10.20;86.95
16595;BME280;8410;52.532;13.336;2022-12-29T02:02:26;100108.13;;;10.79;87.26
16595;BME280;8410;52.532;13.336;2022-12-29T02:05:00;100101.28;;;10.72;84.72
16595;BME280;8410;52.532;13.336;2022-12-29T02:07:31;100110.75;;;11.15;85.22
16595;BME280;8410;52.532;13.336;2022-12-29T02:10:00;100100.47;;;11.04;85.89
16595;BME280;8410;52.532;13.336;2022-12-29T02:12:28;100109.66;;;10.14;86.52
16595;BME280;8410;52.532;13.336;2022-12-29T02:14:59;100102.13;;;10.65;87.35
16595;BME280;8410;52.532;13.336;2022-12-29T02:17:38;100094.44;;;11.17;85.84
16595;BME280;8410;52.532;13.336;2022-12-29T02:23:35;100090.59;;;9.68;90.56
16595;BME280;8410;52.532;13.336;2022-12-29T02:26:20;100079.81;;;10.70;87.62
16595;BME280;8410;52.532;13.336;2022-12-29T02:29:11;100066.97;;;10.92;87.90
16595;BME280;8410;52.532;13.336;2022-12-29T02:31:51;100077.25;;;10.98;84.72
16595;BME280;8410;52.532;13.336;2022-12-29T02:34:23;100072.09;;;10.69;87.05
16595;BME280;8410;52.532;13.336;2022-12-29T02:37:00;100074.69;;;11.25;83.02
16595;BME280;8410;52.532;13.336;2022-12-29T02:39:35;100057.50;;;11.34;82.99
16595;BME280;8410;52.532;13.336;2022-12-29T02:42:09;100064.38;;;10.76;83.06
16595;BME280;8410;52.532;13.336;2022-12-29T02:44:51;100060.94;;;11.30;82.41
16595;BME280;8410;52.532;13.336;2022-12-29T02:47:48;100065.22;;;11.32;82.55
16595;BME280;8410;52.532;13.336;2022-12-29T02:50:22;100064.38;;;11.32;81.82
16595;BME280;8410;52.532;13.336;2022-12-29T02:52:59;100053.22;;;11.28;80.03
16595;BME280;8410;52.532;13.336;2022-12-29T02:55:27;100064.38;;;11.25;81.06
16595;BME280;8410;52.532;13.336;2022-12-29T02:58:15;100067.81;;;11.03;81.26
16595;BME280;8410;52.532;13.336;2022-12-29T03:00:55;100061.78;;;11.19;82.08
16595;BME280;8410;52.532;13.336;2022-12-29T03:03:37;100062.59;;;10.32;85.03
16595;BME280;8410;52.532;13.336;2022-12-29T03:06:18;100053.22;;;11.00;81.82
16595;BME280;8410;52.532;13.336;2022-12-29T03:08:54;100043.66;;;11.59;80.05
16595;BME280;8410;52.532;13.336;2022-12-29T03:11:28;100045.47;;;11.26;79.32
16595;BME280;8410;52.532;13.336;2022-12-29T03:14:27;100038.59;;;10.61;82.18
16595;BME280;8410;52.532;13.336;2022-12-29T03:17:19;100031.78;;;10.91;81.25
16595;BME280;8410;52.532;13.336;2022-12-29T03:19:59;100026.59;;;10.38;84.30
16595;BME280;8410;52.532;13.336;2022-12-29T03:22:29;100036.06;;;10.98;82.46
16595;BME280;8410;52.532;13.336;2022-12-29T03:25:03;100032.56;;;11.34;79.55
16595;BME280;8410;52.532;13.336;2022-12-29T03:27:33;100028.31;;;11.01;81.42
16595;BME280;8410;52.532;13.336;2022-12-29T03:30:04;100025.66;;;11.48;78.67
16595;BME280;8410;52.532;13.336;2022-12-29T03:32:35;100039.47;;;10.95;81.64
16595;BME280;8410;52.532;13.336;2022-12-29T03:35:07;100030.03;;;11.20;79.20
16595;BME280;8410;52.532;13.336;2022-12-29T03:37:37;100027.31;;;11.74;79.08
16595;BME280;8410;52.532;13.336;2022-12-29T03:40:08;100030.75;;;11.70;77.26
16595;BME280;8410;52.532;13.336;2022-12-29T03:42:36;100017.84;;;11.75;77.26
16595;BME280;8410;52.532;13.336;2022-12-29T03:45:06;100024.75;;;11.66;78.53
16595;BME280;8410;52.532;13.336;2022-12-29T03:47:34;100021.41;;;11.34;79.35
16595;BME280;8410;52.532;13.336;2022-12-29T03:50:02;100025.56;;;11.79;78.92
16595;BME280;8410;52.532;13.336;2022-12-29T03:52:31;100028.22;;;11.61;77.83
16595;BME280;8410;52.532;13.336;2022-12-29T03:54:59;100017.13;;;11.31;80.32
16595;BME280;8410;52.532;13.336;2022-12-29T03:57:26;100030.03;;;11.11;80.63
16595;BME280;8410;52.532;13.336;2022-12-29T03:59:54;100033.38;;;11.56;79.77
16595;BME280;8410;52.532;13.336;2022-12-29T04:02:21;100025.63;;;11.61;77.55
16595;BME280;8410;52.532;13.336;2022-12-29T04:04:50;100023.16;;;11.19;79.53
16595;BME280;8410;52.532;13.336;2022-12-29T04:07:17;100018.03;;;11.15;81.61
16595;BME280;8410;52.532;13.336;2022-12-29T04:09:46;100015.34;;;11.50;80.33
16595;BME280;8410;52.532;13.336;2022-12-29T04:12:13;100025.72;;;11.32;80.32
16595;BME280;8410;52.532;13.336;2022-12-29T04:14:42;100017.09;;;11.50;79.20
16595;BME280;8410;52.532;13.336;2022-12-29T04:17:09;100007.50;;;11.82;79.21
16595;BME280;8410;52.532;13.336;2022-12-29T04:19:37;100012.63;;;11.95;78.93
16595;BME280;8410;52.532;13.336;2022-12-29T04:22:04;100013.56;;;11.70;77.17
16595;BME280;8410;52.532;13.336;2022-12-29T04:24:32;100021.91;;;12.26;76.88
16595;BME280;8410;52.532;13.336;2022-12-29T04:27:01;100034.13;;;11.81;79.44
16595;BME280;8410;52.532;13.336;2022-12-29T04:29:28;100027.34;;;11.66;78.72
16595;BME280;8410;52.532;13.336;2022-12-29T04:31:56;100011.81;;;11.86;78.71
16595;BME280;8410;52.532;13.336;2022-12-29T04:34:23;100005.78;;;11.86;78.51
16595;BME280;8410;52.532;13.336;2022-12-29T04:36:51;99992.84;;;11.92;78.06
16595;BME280;8410;52.532;13.336;2022-12-29T04:39:18;99996.22;;;12.09;78.64
16595;BME280;8410;52.532;13.336;2022-12-29T04:41:46;99993.72;;;11.94;77.34
16595;BME280;8410;52.532;13.336;2022-12-29T04:44:15;99993.88;;;11.50;79.88
16595;BME280;8410;52.532;13.336;2022-12-29T04:46:43;99993.69;;;12.00;77.46
16595;BME280;8410;52.532;13.336;2022-12-29T04:49:10;99988.59;;;11.89;78.50
16595;BME280;8410;52.532;13.336;2022-12-29T04:51:38;99991.03;;;12.12;78.42
16595;BME280;8410;52.532;13.336;2022-12-29T04:54:05;99979.72;;;12.33;77.97
16595;BME280;8410;52.532;13.336;2022-12-29T04:56:33;99986.97;;;11.52;79.48
16595;BME280;8410;52.532;13.336;2022-12-29T04:59:00;99990.38;;;11.60;78.99
16595;BME280;8410;52.532;13.336;2022-12-29T05:01:29;99989.56;;;11.56;79.23
16595;BME280;8410;52.532;13.336;2022-12-29T05:03:57;99992.94;;;11.74;78.96
16595;BME280;8410;52.532;13.336;2022-12-29T05:06:24;99994.66;;;11.67;79.98
16595;BME280;8410;52.532;13.336;2022-12-29T05:08:52;99980.88;;;11.89;80.41
16595;BME280;8410;52.532;13.336;2022-12-29T05:11:19;99982.56;;;11.81;79.24
16595;BME280;8410;52.532;13.336;2022-12-29T05:13:47;99979.22;;;11.68;79.16
16595;BME280;8410;52.532;13.336;2022-12-29T05:16:14;99987.94;;;11.23;81.21
16595;BME280;8410;52.532;13.336;2022-12-29T05:18:44;99979.25;;;11.53;81.93
16595;BME280;8410;52.532;13.336;2022-12-29T05:21:11;99976.56;;;11.78;79.29
16595;BME280;8410;52.532;13.336;2022-12-29T05:23:38;99968.09;;;11.48;80.07
16595;BME280;8410;52.532;13.336;2022-12-29T05:26:06;99962.75;;;11.94;78.77
16595;BME280;8410;52.532;13.336;2022-12-29T05:28:33;99958.44;;;11.95;78.08
16595;BME280;8410;52.532;13.336;2022-12-29T05:31:01;99957.66;;;11.88;79.94
16595;BME280;8410;52.532;13.336;2022-12-29T05:33:28;99964.53;;;11.80;79.97
16595;BME280;8410;52.532;13.336;2022-12-29T05:36:03;99962.69;;;12.09;78.92
16595;BME280;8410;52.532;13.336;2022-12-29T05:38:31;99949.00;;;11.98;79.58
16595;BME280;8410;52.532;13.336;2022-12-29T05:40:58;99946.31;;;12.13;79.14
16595;BME280;8410;52.532;13.336;2022-12-29T05:43:25;99943.91;;;11.80;79.05
16595;BME280;8410;52.532;13.336;2022-12-29T05:45:53;99957.03;;;11.26;81.88
16595;BME280;8410;52.532;13.336;2022-12-29T05:48:21;99953.16;;;12.19;79.65
16595;BME280;8410;52.532;13.336;2022-12-29T05:50:49;99949.97;;;11.74;78.71
16595;BME280;8410;52.532;13.336;2022-12-29T05:53:19;99951.53;;;12.03;78.78
16595;BME280;8410;52.532;13.336;2022-12-29T05:55:47;99949.22;;;11.52;80.50
16595;BME280;8410;52.532;13.336;2022-12-29T05:58:15;99949.03;;;11.95;80.11
16595;BME280;8410;52.532;13.336;2022-12-29T06:00:42;99941.03;;;12.30;78.23
16595;BME280;8410;52.532;13.336;2022-12-29T06:03:10;99950.63;;;12.11;78.15
16595;BME280;8410;52.532;13.336;2022-12-29T06:05:38;99944.81;;;11.71;81.77
16595;BME280;8410;52.532;13.336;2022-12-29T06:08:06;99930.84;;;12.12;80.11
16595;BME280;8410;52.532;13.336;2022-12-29T06:10:34;99930.84;;;12.12;79.62
16595;BME280;8410;52.532;13.336;2022-12-29T06:13:02;99936.78;;;12.25;80.33
16595;BME280;8410;52.532;13.336;2022-12-29T06:15:30;99930.00;;;12.05;80.31
16595;BME280;8410;52.532;13.336;2022-12-29T06:17:57;99932.47;;;12.24;79.62
16595;BME280;8410;52.532;13.336;2022-12-29T06:20:25;99941.97;;;12.22;79.15
16595;BME280;8410;52.532;13.336;2022-12-29T06:22:52;99947.06;;;12.28;79.74
16595;BME280;8410;52.532;13.336;2022-12-29T06:25:20;99950.84;;;11.68;81.04
16595;BME280;8410;52.532;13.336;2022-12-29T06:27:49;99944.75;;;11.86;81.33
16595;BME280;8410;52.532;13.336;2022-12-29T06:30:16;99936.66;;;12.37;80.42
16595;BME280;8410;52.532;13.336;2022-12-29T06:32:44;99941.25;;;11.97;81.21
16595;BME280;8410;52.532;13.336;2022-12-29T06:35:12;99946.53;;;11.72;80.20
16595;BME280;8410;52.532;13.336;2022-12-29T06:37:39;99945.63;;;11.87;80.32
16595;BME280;8410;52.532;13.336;2022-12-29T06:40:07;99946.38;;;12.01;79.63
16595;BME280;8410;52.532;13.336;2022-12-29T06:42:35;99949.91;;;11.80;81.14
16595;BME280;8410;52.532;13.336;2022-12-29T06:45:06;99942.97;;;11.99;80.24
16595;BME280;8410;52.532;13.336;2022-12-29T06:47:33;99945.56;;;11.96;80.36
16595;BME280;8410;52.532;13.336;2022-12-29T06:50:02;99946.41;;;11.98;79.82
16595;BME280;8410;52.532;13.336;2022-12-29T06:52:29;99952.44;;;12.00;80.67
16595;BME280;8410;52.532;13.336;2022-12-29T06:54:57;99962.91;;;11.63;82.19
16595;BME280;8410;52.532;13.336;2022-12-29T06:57:25;99955.28;;;11.39;83.30
16595;BME280;8410;52.532;13.336;2022-12-29T06:59:53;99956.69;;;12.04;81.04
16595;BME280;8410;52.532;13.336;2022-12-29T07:02:23;99958.41;;;12.07;79.22
16595;BME280;8410;52.532;13.336;2022-12-29T07:04:52;99964.56;;;11.70;82.31
16595;BME280;8410;52.532;13.336;2022-12-29T07:07:19;99960.94;;;12.14;80.31
16595;BME280;8410;52.532;13.336;2022-12-29T07:09:47;99960.31;;;11.63;82.41
16595;BME280;8410;52.532;13.336;2022-12-29T07:12:14;99957.38;;;12.32;80.74
16595;BME280;8410;52.532;13.336;2022-12-29T07:14:42;99968.00;;;11.79;81.16
16595;BME280;8410;52.532;13.336;2022-12-29T07:17:10;99970.50;;;11.94;81.27
16595;BME280;8410;52.532;13.336;2022-12-29T07:19:39;99963.53;;;12.11;81.82
16595;BME280;8410;52.532;13.336;2022-12-29T07:22:06;99962.84;;;11.69;82.33
16595;BME280;8410;52.532;13.336;2022-12-29T07:24:34;99969.69;;;11.84;80.95
16595;BME280;8410;52.532;13.336;2022-12-29T07:27:01;99963.72;;;11.70;81.18
16595;BME280;8410;52.532;13.336;2022-12-29T07:29:28;99960.06;;;12.17;79.35
16595;BME280;8410;52.532;13.336;2022-12-29T07:31:56;99968.78;;;11.96;81.21
16595;BME280;8410;52.532;13.336;2022-12-29T07:34:23;99956.53;;;12.26;80.16
16595;BME280;8410;52.532;13.336;2022-12-29T07:36:52;99964.38;;;12.17;80.17
16595;BME280;8410;52.532;13.336;2022-12-29T07:39:20;99960.84;;;12.25;79.48
16595;BME280;8410;52.532;13.336;2022-12-29T07:41:47;99958.03;;;12.56;78.64
16595;BME280;8410;52.532;13.336;2022-12-29T07:44:14;99956.59;;;12.20;81.33
16595;BME280;8410;52.532;13.336;2022-12-29T07:46:42;99945.50;;;12.02;80.48
16595;BME280;8410;52.532;13.336;2022-12-29T07:49:22;99954.28;;;11.69;82.49
16595;BME280;8410;52.532;13.336;2022-12-29T07:51:49;99960.94;;;12.14;81.51
16595;BME280;8410;52.532;13.336;2022-12-29T07:54:18;99953.22;;;12.10;81.07
16595;BME280;8410;52.532;13.336;2022-12-29T07:56:46;99957.44;;;12.22;80.16
16595;BME280;8410;52.532;13.336;2022-12-29T07:59:13;99952.41;;;11.97;81.53
16595;BME280;8410;52.532;13.336;2022-12-29T08:01:41;99967.16;;;11.67;83.43
16595;BME280;8410;52.532;13.336;2022-12-29T08:04:08;99960.84;;;12.24;81.88
16595;BME280;8410;52.532;13.336;2022-12-29T08:06:36;99959.09;;;12.29;80.51
16595;BME280;8410;52.532;13.336;2022-12-29T08:09:04;99954.94;;;12.11;81.65
16595;BME280;8410;52.532;13.336;2022-12-29T08:11:46;99960.84;;;12.30;80.86
16595;BME280;8410;52.532;13.336;2022-12-29T08:14:13;99960.69;;;12.45;79.25
16595;BME280;8410;52.532;13.336;2022-12-29T08:16:41;99959.09;;;12.29;80.50
16595;BME280;8410;52.532;13.336;2022-12-29T08:19:09;99959.22;;;12.10;81.46
16595;BME280;8410;52.532;13.336;2022-12-29T08:21:37;99953.94;;;12.29;80.66
16595;BME280;8410;52.532;13.336;2022-12-29T08:24:05;99966.38;;;11.50;82.45
16595;BME280;8410;52.532;13.336;2022-12-29T08:26:33;99966.25;;;11.81;83.24
16595;BME280;8410;52.532;13.336;2022-12-29T08:29:02;99954.06;;;12.13;80.75
16595;BME280;8410;52.532;13.336;2022-12-29T08:31:30;99960.78;;;12.36;80.71
16595;BME280;8410;52.532;13.336;2022-12-29T08:33:57;99965.22;;;12.12;81.91
16595;BME280;8410;52.532;13.336;2022-12-29T08:36:26;99959.19;;;12.17;81.39
16595;BME280;8410;52.532;13.336;2022-12-29T08:38:53;99945.44;;;12.14;81.48
16595;BME280;8410;52.532;13.336;2022-12-29T08:41:21;99944.53;;;12.19;80.47
16595;BME280;8410;52.532;13.336;2022-12-29T08:43:49;99947.00;;;12.39;79.67
16595;BME280;8410;52.532;13.336;2022-12-29T08:46:18;99955.91;;;11.84;81.87
16595;BME280;8410;52.532;13.336;2022-12-29T08:48:45;99963.56;;;12.02;81.31
16595;BME280;8410;52.532;13.336;2022-12-29T08:51:13;99957.53;;;12.06;81.21
16595;BME280;8410;52.532;13.336;2022-12-29T08:53:44;99957.41;;;12.28;80.85
16595;BME280;8410;52.532;13.336;2022-12-29T08:56:11;99955.63;;;12.36;80.44
16595;BME280;8410;52.532;13.336;2022-12-29T08:58:39;99953.78;;;12.50;80.26
16595;BME280;8410;52.532;13.336;2022-12-29T09:01:07;99950.25;;;12.61;79.13
16595;BME280;8410;52.532;13.336;2022-12-29T09:03:36;99946.44;;;12.98;77.85
16595;BME280;8410;52.532;13.336;2022-12-29T09:06:23;99946.84;;;12.55;78.68
16595;BME280;8410;52.532;13.336;2022-12-29T09:08:53;99939.47;;;13.07;77.40
16595;BME280;8410;52.532;13.336;2022-12-29T09:11:23;99952.78;;;12.67;79.96
16595;BME280;8410;52.532;13.336;2022-12-29T09:13:52;99934.69;;;12.70;78.71
16595;BME280;8410;52.532;13.336;2022-12-29T09:16:21;99941.88;;;12.31;81.41
16595;BME280;8410;52.532;13.336;2022-12-29T09:18:51;99948.59;;;12.55;79.02
16595;BME280;8410;52.532;13.336;2022-12-29T09:21:18;99941.81;;;12.43;80.77
16595;BME280;8410;52.532;13.336;2022-12-29T09:23:46;99935.41;;;12.83;79.02
16595;BME280;8410;52.532;13.336;2022-12-29T09:26:14;99933.25;;;12.32;79.17
16595;BME280;8410;52.532;13.336;2022-12-29T09:28:42;99925.72;;;12.06;80.25
16595;BME280;8410;52.532;13.336;2022-12-29T09:31:10;99926.38;;;12.34;81.58
16595;BME280;8410;52.532;13.336;2022-12-29T09:33:38;99931.75;;;12.05;82.19
16595;BME280;8410;52.532;13.336;2022-12-29T09:36:08;99932.28;;;12.45;87.91
16595;BME280;8410;52.532;13.336;2022-12-29T09:38:35;99910.25;;;14.31;88.17
16595;BME280;8410;52.532;13.336;2022-12-29T09:41:08;99889.25;;;14.99;84.03
16595;BME280;8410;52.532;13.336;2022-12-29T09:44:03;99903.19;;;14.91;77.09
16595;BME280;8410;52.532;13.336;2022-12-29T09:46:35;99904.63;;;15.49;78.81
16595;BME280;8410;52.532;13.336;2022-12-29T09:49:11;99897.16;;;14.90;73.30
16595;BME280;8410;52.532;13.336;2022-12-29T09:51:46;99909.31;;;13.78;74.98
16595;BME280;8410;52.532;13.336;2022-12-29T09:54:24;99919.28;;;13.42;76.52
16595;BME280;8410;52.532;13.336;2022-12-29T09:56:57;99915.06;;;13.35;77.61
16595;BME280;8410;52.532;13.336;2022-12-29T09:59:29;99927.47;;;13.02;79.36
16595;BME280;8410;52.532;13.336;2022-12-29T10:02:06;99920.06;;;13.49;78.00
16595;BME280;8410;52.532;13.336;2022-12-29T10:04:41;99937.56;;;13.24;78.03
16595;BME280;8410;52.532;13.336;2022-12-29T10:07:14;99943.06;;;12.93;78.85
16595;BME280;8410;52.532;13.336;2022-12-29T10:10:00;99929.56;;;13.47;77.65
16595;BME280;8410;52.532;13.336;2022-12-29T10:12:40;99923.53;;;13.46;77.07
16595;BME280;8410;52.532;13.336;2022-12-29T10:15:26;99932.47;;;13.18;77.84
16595;BME280;8410;52.532;13.336;2022-12-29T10:18:02;99928.41;;;12.95;78.14
16595;BME280;8410;52.532;13.336;2022-12-29T10:20:38;99920.41;;;13.17;79.25
16595;BME280;8410;52.532;13.336;2022-12-29T10:23:25;99917.50;;;13.48;76.42
16595;BME280;8410;52.532;13.336;2022-12-29T10:25:54;99911.81;;;13.15;78.38
16595;BME280;8410;52.532;13.336;2022-12-29T10:28:28;99923.81;;;13.22;78.56
16595;BME280;8410;52.532;13.336;2022-12-29T10:31:03;99914.53;;;13.04;78.54
16595;BME280;8410;52.532;13.336;2022-12-29T10:33:36;99906.84;;;12.99;79.91
16595;BME280;8410;52.532;13.336;2022-12-29T10:36:12;99909.84;;;13.38;78.56
16595;BME280;8410;52.532;13.336;2022-12-29T10:38:47;99911.25;;;13.64;78.37
16595;BME280;8410;52.532;13.336;2022-12-29T10:41:21;99916.59;;;13.52;77.87
16595;BME280;8410;52.532;13.336;2022-12-29T10:43:53;99912.84;;;13.73;77.78
16595;BME280;8410;52.532;13.336;2022-12-29T10:46:23;99897.56;;;14.16;76.77
16595;BME280;8410;52.532;13.336;2022-12-29T10:48:52;99900.22;;;13.51;77.77
16595;BME280;8410;52.532;13.336;2022-12-29T10:51:22;99899.88;;;13.76;78.02
16595;BME280;8410;52.532;13.336;2022-12-29T10:53:57;99897.34;;;13.74;77.63
16595;BME280;8410;52.532;13.336;2022-12-29T10:56:30;99897.75;;;14.02;77.28
16595;BME280;8410;52.532;13.336;2022-12-29T10:59:06;99897.06;;;13.91;78.03
16595;BME280;8410;52.532;13.336;2022-12-29T11:01:42;99887.09;;;13.65;77.57
16595;BME280;8410;52.532;13.336;2022-12-29T11:04:26;99886.25;;;13.66;76.90
16595;BME280;8410;52.532;13.336;2022-12-29T11:06:56;99888.81;;;13.66;76.97
16595;BME280;8410;52.532;13.336;2022-12-29T11:09:28;99899.16;;;13.66;77.84
16595;BME280;8410;52.532;13.336;2022-12-29T11:12:20;99894.16;;;13.55;77.83
16595;BME280;8410;52.532;13.336;2022-12-29T11:15:01;99904.88;;;13.20;79.82
16595;BME280;8410;52.532;13.336;2022-12-29T11:17:28;99912.91;;;12.97;80.14
16595;BME280;8410;52.532;13.336;2022-12-29T11:19:56;99894.84;;;12.92;80.34
16595;BME280;8410;52.532;13.336;2022-12-29T11:22:27;99908.25;;;13.25;78.85
16595;BME280;8410;52.532;13.336;2022-12-29T11:25:10;99899.66;;;13.91;77.95
16595;BME280;8410;52.532;13.336;2022-12-29T11:27:40;99897.94;;;13.27;79.88
16595;BME280;8410;52.532;13.336;2022-12-29T11:30:23;99910.91;;;13.90;77.68
16595;BME280;8410;52.532;13.336;2022-12-29T11:32:51;99902.34;;;13.83;78.74
16595;BME280;8410;52.532;13.336;2022-12-29T11:35:30;99913.44;;;13.25;78.98
16595;BME280;8410;52.532;13.336;2022-12-29T11:37:58;99920.53;;;13.06;79.85
16595;BME280;8410;52.532;13.336;2022-12-29T11:40:28;99916.28;;;13.75;78.78
16595;BME280;8410;52.532;13.336;2022-12-29T11:42:57;99922.59;;;13.55;80.65
16595;BME280;8410;52.532;13.336;2022-12-29T11:45:27;99926.13;;;13.46;80.38
16595;BME280;8410;52.532;13.336;2022-12-29T11:47:57;99927.91;;;13.41;81.29
16595;BME280;8410;52.532;13.336;2022-12-29T11:50:28;99918.84;;;13.03;81.43
16595;BME280;8410;52.532;13.336;2022-12-29T11:52:58;99929.00;;;13.19;80.83
16595;BME280;8410;52.532;13.336;2022-12-29T11:55:29;99926.69;;;13.70;79.26
16595;BME280;8410;52.532;13.336;2022-12-29T11:57:59;99925.22;;;13.51;80.59
16595;BME280;8410;52.532;13.336;2022-12-29T12:00:32;99916.03;;;13.92;80.26
16595;BME280;8410;52.532;13.336;2022-12-29T12:03:03;99917.25;;;12.90;82.62
16595;BME280;8410;52.532;13.336;2022-12-29T12:05:37;99932.84;;;12.81;84.39
16595;BME280;8410;52.532;13.336;2022-12-29T12:08:11;99924.38;;;12.70;85.41
16595;BME280;8410;52.532;13.336;2022-12-29T12:10:50;99920.69;;;12.91;86.04
16595;BME280;8410;52.532;13.336;2022-12-29T12:13:23;99939.06;;;12.58;86.69
16595;BME280;8410;52.532;13.336;2022-12-29T12:15:57;99943.41;;;12.53;89.44
16595;BME280;8410;52.532;13.336;2022-12-29T12:18:33;99947.06;;;12.31;89.97
16595;BME280;8410;52.532;13.336;2022-12-29T12:21:10;99951.06;;;12.67;88.80
16595;BME280;8410;52.532;13.336;2022-12-29T12:23:52;99944.97;;;12.76;90.64
16595;BME280;8410;52.532;13.336;2022-12-29T12:26:29;99946.84;;;12.55;89.89
16595;BME280;8410;52.532;13.336;2022-12-29T12:29:01;99935.78;;;12.40;87.97
16595;BME280;8410;52.532;13.336;2022-12-29T12:31:42;99930.97;;;12.95;87.74
16595;BME280;8410;52.532;13.336;2022-12-29T12:34:15;99924.75;;;13.15;84.90
16595;BME280;8410;52.532;13.336;2022-12-29T12:37:06;99926.84;;;13.58;85.04
16595;BME280;8410;52.532;13.336;2022-12-29T12:39:44;99934.09;;;13.25;85.31
16595;BME280;8410;52.532;13.336;2022-12-29T12:42:28;99930.75;;;13.17;86.71
16595;BME280;8410;52.532;13.336;2022-12-29T12:45:10;99933.72;;;12.80;85.19
16595;BME280;8410;52.532;13.336;2022-12-29T12:47:54;99924.38;;;13.49;82.61
16595;BME280;8410;52.532;13.336;2022-12-29T12:50:45;99929.56;;;12.64;85.91
16595;BME280;8410;52.532;13.336;2022-12-29T12:53:30;99929.13;;;13.07;83.09
16595;BME280;8410;52.532;13.336;2022-12-29T12:56:20;99924.41;;;12.64;85.45
16595;BME280;8410;52.532;13.336;2022-12-29T12:58:54;99943.63;;;12.26;85.37
16595;BME280;8410;52.532;13.336;2022-12-29T13:01:38;99951.97;;;12.58;85.39
16595;BME280;8410;52.532;13.336;2022-12-29T13:04:26;99948.47;;;12.69;84.35
16595;BME280;8410;52.532;13.336;2022-12-29T13:07:06;99945.22;;;12.48;85.73
16595;BME280;8410;52.532;13.336;2022-12-29T13:09:48;99932.84;;;12.81;85.81
16595;BME280;8410;52.532;13.336;2022-12-29T13:12:27;99937.84;;;12.99;85.27
16595;BME280;8410;52.532;13.336;2022-12-29T13:15:09;99945.44;;;13.12;82.83
16595;BME280;8410;52.532;13.336;2022-12-29T13:17:44;99944.13;;;13.56;82.36
16595;BME280;8410;52.532;13.336;2022-12-29T13:20:22;99938.34;;;13.35;81.86
16595;BME280;8410;52.532;13.336;2022-12-29T13:22:56;99948.50;;;12.66;84.41
16595;BME280;8410;52.532;13.336;2022-12-29T13:25:30;99954.97;;;13.07;84.62
16595;BME280;8410;52.532;13.336;2022-12-29T13:28:06;99948.16;;;13.02;85.15